sensor_id;sensor_type;location;lat;lon;timestamp;temperature;humidity
3912;DHT22;1971;51.778;10.330;2023-08-30T08:28:07;17.20;99.90
3912;DHT22;1971;51.778;10.330;2023-08-30T08:30:37;17.10;99.90
3912;DHT22;1971;51.778;10.330;2023-08-30T08:33:09;17.40;99.90
3912;DHT22;1971;51.778;10.330;2023-08-30T08:35:39;17.50;99.90
3912;DHT22;1971;51.778;10.330;2023-08-30T08:38:10;17.50;99.90
3912;DHT22;1971;51.778;10.330;2023-08-30T08:40:41;17.60;99.90
3912;DHT22;1971;51.778;10.330;2023-08-30T08:43:14;17.70;99.90
3912;DHT22;1971;51.778;10.330;2023-08-30T08:45:45;17.90;99.90
3912;DHT22;1971;51.778;10.330;2023-08-30T08:48:16;18.00;99.90
3912;DHT22;1971;51.778;10.330;2023-08-30T08:50:46;18.00;99.90
3912;DHT22;1971;51.778;10.330;2023-08-30T08:53:19;17.80;99.90
3912;DHT22;1971;51.778;10.330;2023-08-30T08:55:50;18.00;99.90
3912;DHT22;1971;51.778;10.330;2023-08-30T08:58:26;18.10;99.90
3912;DHT22;1971;51.778;10.330;2023-08-30T09:00:58;18.20;99.90
3912;DHT22;1971;51.778;10.330;2023-08-30T09:03:28;18.20;99.90
3912;DHT22;1971;51.778;10.330;2023-08-30T09:05:59;18.30;99.90
3912;DHT22;1971;51.778;10.330;2023-08-30T09:08:30;18.10;99.90
3912;DHT22;1971;51.778;10.330;2023-08-30T09:11:01;17.80;99.90
3912;DHT22;1971;51.778;10.330;2023-08-30T09:13:34;17.80;99.90
3912;DHT22;1971;51.778;10.330;2023-08-30T09:16:11;18.00;99.90
3912;DHT22;1971;51.778;10.330;2023-08-30T09:18:42;18.00;99.90
3912;DHT22;1971;51.778;10.330;2023-08-30T09:21:31;18.10;99.90
3912;DHT22;1971;51.778;10.330;2023-08-30T09:24:02;17.80;99.90
3912;DHT22;1971;51.778;10.330;2023-08-30T09:26:34;17.60;99.90
3912;DHT22;1971;51.778;10.330;2023-08-30T09:29:08;17.30;99.90
3912;DHT22;1971;51.778;10.330;2023-08-30T09:31:39;17.20;99.90
3912;DHT22;1971;51.778;10.330;2023-08-30T09:34:10;17.20;99.90
3912;DHT22;1971;51.778;10.330;2023-08-30T09:36:42;17.30;99.90
3912;DHT22;1971;51.778;10.330;2023-08-30T09:39:16;17.20;99.90
3912;DHT22;1971;51.778;10.330;2023-08-30T09:41:47;17.30;99.90
3912;DHT22;1971;51.778;10.330;2023-08-30T09:44:21;17.50;99.90
3912;DHT22;1971;51.778;10.330;2023-08-30T09:46:53;17.90;99.90
3912;DHT22;1971;51.778;10.330;2023-08-30T09:49:25;18.20;99.90
3912;DHT22;1971;51.778;10.330;2023-08-30T09:51:57;18.40;99.90
3912;DHT22;1971;51.778;10.330;2023-08-30T09:54:34;18.40;99.90
3912;DHT22;1971;51.778;10.330;2023-08-30T09:57:09;18.50;99.90
3912;DHT22;1971;51.778;10.330;2023-08-30T09:59:42;18.60;99.90
3912;DHT22;1971;51.778;10.330;2023-08-30T10:02:13;18.60;99.90
3912;DHT22;1971;51.778;10.330;2023-08-30T10:04:45;18.60;99.90
3912;DHT22;1971;51.778;10.330;2023-08-30T10:07:17;18.70;99.90
3912;DHT22;1971;51.778;10.330;2023-08-30T10:09:50;18.70;99.90
3912;DHT22;1971;51.778;10.330;2023-08-30T10:12:36;18.60;99.90
3912;DHT22;1971;51.778;10.330;2023-08-30T10:15:09;18.20;99.90
3912;DHT22;1971;51.778;10.330;2023-08-30T10:17:43;17.70;99.90
3912;DHT22;1971;51.778;10.330;2023-08-30T10:20:15;17.90;99.90
3912;DHT22;1971;51.778;10.330;2023-08-30T10:22:45;17.90;99.90
3912;DHT22;1971;51.778;10.330;2023-08-30T10:25:19;17.90;99.90
3912;DHT22;1971;51.778;10.330;2023-08-30T10:27:50;18.00;99.90
3912;DHT22;1971;51.778;10.330;2023-08-30T10:30:25;17.90;99.90
3912;DHT22;1971;51.778;10.330;2023-08-30T10:32:55;18.00;99.90
3912;DHT22;1971;51.778;10.330;2023-08-30T10:35:26;17.90;99.90
3912;DHT22;1971;51.778;10.330;2023-08-30T10:37:58;18.00;99.90
3912;DHT22;1971;51.778;10.330;2023-08-30T10:40:29;18.20;99.90
3912;DHT22;1971;51.778;10.330;2023-08-30T10:43:00;18.40;99.90
3912;DHT22;1971;51.778;10.330;2023-08-30T10:45:33;18.50;99.90
3912;DHT22;1971;51.778;10.330;2023-08-30T10:48:04;18.20;99.90
3912;DHT22;1971;51.778;10.330;2023-08-30T10:50:35;18.50;99.90
3912;DHT22;1971;51.778;10.330;2023-08-30T10:53:13;18.70;99.90
3912;DHT22;1971;51.778;10.330;2023-08-30T10:56:07;18.60;99.90
3912;DHT22;1971;51.778;10.330;2023-08-30T10:58:42;18.70;99.90
3912;DHT22;1971;51.778;10.330;2023-08-30T11:01:16;18.90;99.90
3912;DHT22;1971;51.778;10.330;2023-08-30T11:03:46;19.20;99.90
3912;DHT22;1971;51.778;10.330;2023-08-30T11:06:20;19.20;99.90
3912;DHT22;1971;51.778;10.330;2023-08-30T11:08:50;19.30;99.90
3912;DHT22;1971;51.778;10.330;2023-08-30T11:11:20;19.40;99.90
3912;DHT22;1971;51.778;10.330;2023-08-30T11:13:50;19.50;99.90
3912;DHT22;1971;51.778;10.330;2023-08-30T11:16:26;19.60;99.90
3912;DHT22;1971;51.778;10.330;2023-08-30T11:18:57;19.60;99.90
3912;DHT22;1971;51.778;10.330;2023-08-30T11:21:27;19.60;99.90
3912;DHT22;1971;51.778;10.330;2023-08-30T11:23:57;19.60;99.90
3912;DHT22;1971;51.778;10.330;2023-08-30T11:26:27;19.50;99.90
3912;DHT22;1971;51.778;10.330;2023-08-30T11:28:57;19.70;99.90
3912;DHT22;1971;51.778;10.330;2023-08-30T11:31:30;19.40;99.90
3912;DHT22;1971;51.778;10.330;2023-08-30T11:34:00;19.10;99.90
3912;DHT22;1971;51.778;10.330;2023-08-30T11:36:32;19.00;99.90
3912;DHT22;1971;51.778;10.330;2023-08-30T11:39:04;18.80;99.90
3912;DHT22;1971;51.778;10.330;2023-08-30T11:41:37;18.60;99.90
3912;DHT22;1971;51.778;10.330;2023-08-30T11:44:09;18.60;99.90
3912;DHT22;1971;51.778;10.330;2023-08-30T11:46:42;18.50;99.90
3912;DHT22;1971;51.778;10.330;2023-08-30T11:49:13;18.10;99.90
3912;DHT22;1971;51.778;10.330;2023-08-30T11:51:44;17.80;99.90
3912;DHT22;1971;51.778;10.330;2023-08-30T11:54:16;17.60;99.90
3912;DHT22;1971;51.778;10.330;2023-08-30T11:56:47;17.10;99.90
3912;DHT22;1971;51.778;10.330;2023-08-30T11:59:20;17.10;99.90
3912;DHT22;1971;51.778;10.330;2023-08-30T12:01:55;17.20;99.90
3912;DHT22;1971;51.778;10.330;2023-08-30T12:04:25;17.40;99.90
3912;DHT22;1971;51.778;10.330;2023-08-30T12:06:55;17.70;99.90
3912;DHT22;1971;51.778;10.330;2023-08-30T12:09:30;18.00;99.90
3912;DHT22;1971;51.778;10.330;2023-08-30T12:12:08;18.30;99.90
3912;DHT22;1971;51.778;10.330;2023-08-30T12:14:39;18.60;99.90
3912;DHT22;1971;51.778;10.330;2023-08-30T12:17:12;18.50;99.90
3912;DHT22;1971;51.778;10.330;2023-08-30T12:19:42;18.50;99.90
3912;DHT22;1971;51.778;10.330;2023-08-30T12:22:13;18.20;99.90
3912;DHT22;1971;51.778;10.330;2023-08-30T12:24:43;18.10;99.90
3912;DHT22;1971;51.778;10.330;2023-08-30T12:27:14;18.20;99.90
3912;DHT22;1971;51.778;10.330;2023-08-30T12:29:44;18.30;99.90
3912;DHT22;1971;51.778;10.330;2023-08-30T12:32:17;18.50;99.90
3912;DHT22;1971;51.778;10.330;2023-08-30T12:34:47;18.80;99.90
3912;DHT22;1971;51.778;10.330;2023-08-30T12:37:18;18.90;99.90
3912;DHT22;1971;51.778;10.330;2023-08-30T12:39:48;19.00;99.90
3912;DHT22;1971;51.778;10.330;2023-08-30T12:42:18;19.00;99.90
3912;DHT22;1971;51.778;10.330;2023-08-30T12:44:48;19.00;99.90
3912;DHT22;1971;51.778;10.330;2023-08-30T12:47:21;18.90;99.90
3912;DHT22;1971;51.778;10.330;2023-08-30T12:49:51;19.10;99.90
3912;DHT22;1971;51.778;10.330;2023-08-30T12:52:22;19.20;99.90
3912;DHT22;1971;51.778;10.330;2023-08-30T12:54:52;19.10;99.90
3912;DHT22;1971;51.778;10.330;2023-08-30T12:57:22;19.20;99.90
3912;DHT22;1971;51.778;10.330;2023-08-30T12:59:53;18.70;99.90
3912;DHT22;1971;51.778;10.330;2023-08-30T13:02:26;18.50;99.90
3912;DHT22;1971;51.778;10.330;2023-08-30T13:04:56;18.60;99.90
3912;DHT22;1971;51.778;10.330;2023-08-30T13:07:27;18.40;99.90
3912;DHT22;1971;51.778;10.330;2023-08-30T13:09:59;18.10;99.90
3912;DHT22;1971;51.778;10.330;2023-08-30T13:12:30;17.90;99.90
3912;DHT22;1971;51.778;10.330;2023-08-30T13:15:00;17.70;99.90
3912;DHT22;1971;51.778;10.330;2023-08-30T13:17:33;17.60;99.90
3912;DHT22;1971;51.778;10.330;2023-08-30T13:20:05;17.70;99.90
3912;DHT22;1971;51.778;10.330;2023-08-30T13:22:36;17.60;99.90
3912;DHT22;1971;51.778;10.330;2023-08-30T13:25:07;17.40;99.90
3912;DHT22;1971;51.778;10.330;2023-08-30T13:27:37;17.40;99.90
3912;DHT22;1971;51.778;10.330;2023-08-30T13:30:07;17.30;99.90
3912;DHT22;1971;51.778;10.330;2023-08-30T13:32:40;17.40;99.90
3912;DHT22;1971;51.778;10.330;2023-08-30T13:35:10;17.40;99.90
3912;DHT22;1971;51.778;10.330;2023-08-30T13:37:41;17.60;99.90
3912;DHT22;1971;51.778;10.330;2023-08-30T13:40:13;17.80;99.90
3912;DHT22;1971;51.778;10.330;2023-08-30T13:42:44;17.70;99.90
3912;DHT22;1971;51.778;10.330;2023-08-30T13:45:14;18.10;99.90
3912;DHT22;1971;51.778;10.330;2023-08-30T13:47:47;18.20;99.90
3912;DHT22;1971;51.778;10.330;2023-08-30T13:50:19;18.30;99.90
3912;DHT22;1971;51.778;10.330;2023-08-30T13:52:49;18.50;99.90
3912;DHT22;1971;51.778;10.330;2023-08-30T13:55:19;18.60;99.90
3912;DHT22;1971;51.778;10.330;2023-08-30T13:57:50;18.50;99.90
3912;DHT22;1971;51.778;10.330;2023-08-30T14:00:21;18.50;99.90
3912;DHT22;1971;51.778;10.330;2023-08-30T14:02:54;18.70;99.90
3912;DHT22;1971;51.778;10.330;2023-08-30T14:05:24;18.90;99.90
3912;DHT22;1971;51.778;10.330;2023-08-30T14:07:54;19.00;99.90
3912;DHT22;1971;51.778;10.330;2023-08-30T14:10:25;18.90;99.90
3912;DHT22;1971;51.778;10.330;2023-08-30T14:12:56;19.30;99.90
3912;DHT22;1971;51.778;10.330;2023-08-30T14:15:27;19.60;99.90
3912;DHT22;1971;51.778;10.330;2023-08-30T14:18:00;19.70;99.90
3912;DHT22;1971;51.778;10.330;2023-08-30T14:20:30;19.50;99.90
3912;DHT22;1971;51.778;10.330;2023-08-30T14:23:00;19.50;99.90
3912;DHT22;1971;51.778;10.330;2023-08-30T14:25:31;19.60;99.90
3912;DHT22;1971;51.778;10.330;2023-08-30T14:28:02;19.40;99.90
3912;DHT22;1971;51.778;10.330;2023-08-30T14:30:33;19.20;99.90
3912;DHT22;1971;51.778;10.330;2023-08-30T14:33:06;19.00;99.90
3912;DHT22;1971;51.778;10.330;2023-08-30T14:35:41;19.10;99.90
3912;DHT22;1971;51.778;10.330;2023-08-30T14:38:11;19.20;99.90
3912;DHT22;1971;51.778;10.330;2023-08-30T14:40:41;19.10;99.90
3912;DHT22;1971;51.778;10.330;2023-08-30T14:43:12;18.80;99.90
3912;DHT22;1971;51.778;10.330;2023-08-30T14:45:43;18.80;99.90
3912;DHT22;1971;51.778;10.330;2023-08-30T14:48:24;18.50;99.90
3912;DHT22;1971;51.778;10.330;2023-08-30T14:50:55;18.50;99.90
3912;DHT22;1971;51.778;10.330;2023-08-30T14:53:26;18.90;99.90
3912;DHT22;1971;51.778;10.330;2023-08-30T14:55:57;19.20;99.90
3912;DHT22;1971;51.778;10.330;2023-08-30T14:58:27;18.90;99.90
3912;DHT22;1971;51.778;10.330;2023-08-30T15:00:58;18.80;99.90
3912;DHT22;1971;51.778;10.330;2023-08-30T15:03:31;18.60;99.90
3912;DHT22;1971;51.778;10.330;2023-08-30T15:06:03;18.50;99.90
3912;DHT22;1971;51.778;10.330;2023-08-30T15:08:33;18.40;99.90
3912;DHT22;1971;51.778;10.330;2023-08-30T15:11:04;18.30;99.90
3912;DHT22;1971;51.778;10.330;2023-08-30T15:13:35;18.30;99.90
3912;DHT22;1971;51.778;10.330;2023-08-30T15:16:06;18.20;99.90
3912;DHT22;1971;51.778;10.330;2023-08-30T15:18:40;18.10;99.90
3912;DHT22;1971;51.778;10.330;2023-08-30T15:21:12;17.90;99.90
3912;DHT22;1971;51.778;10.330;2023-08-30T15:23:43;18.00;99.90
3912;DHT22;1971;51.778;10.330;2023-08-30T15:26:16;18.00;99.90
3912;DHT22;1971;51.778;10.330;2023-08-30T15:28:48;18.00;99.90
3912;DHT22;1971;51.778;10.330;2023-08-30T15:31:19;18.00;99.90
3912;DHT22;1971;51.778;10.330;2023-08-30T15:33:53;17.80;99.90
3912;DHT22;1971;51.778;10.330;2023-08-30T15:36:24;17.80;99.90
3912;DHT22;1971;51.778;10.330;2023-08-30T15:38:55;17.80;99.90
3912;DHT22;1971;51.778;10.330;2023-08-30T15:41:26;17.60;99.90
3912;DHT22;1971;51.778;10.330;2023-08-30T15:43:57;17.60;99.90
3912;DHT22;1971;51.778;10.330;2023-08-30T15:46:28;17.50;99.90
3912;DHT22;1971;51.778;10.330;2023-08-30T15:49:03;17.50;99.90
3912;DHT22;1971;51.778;10.330;2023-08-30T15:51:34;17.60;99.90
3912;DHT22;1971;51.778;10.330;2023-08-30T15:54:05;17.70;99.90
3912;DHT22;1971;51.778;10.330;2023-08-30T15:56:39;17.70;99.90
3912;DHT22;1971;51.778;10.330;2023-08-30T15:59:11;17.70;99.90
3912;DHT22;1971;51.778;10.330;2023-08-30T16:01:41;17.60;99.90
3912;DHT22;1971;51.778;10.330;2023-08-30T16:04:16;17.50;99.90
3912;DHT22;1971;51.778;10.330;2023-08-30T16:06:50;17.40;99.90
3912;DHT22;1971;51.778;10.330;2023-08-30T16:09:21;17.30;99.90
3912;DHT22;1971;51.778;10.330;2023-08-30T16:11:52;17.20;99.90
3912;DHT22;1971;51.778;10.330;2023-08-30T16:14:25;17.10;99.90
3912;DHT22;1971;51.778;10.330;2023-08-30T16:16:56;17.10;99.90
3912;DHT22;1971;51.778;10.330;2023-08-30T16:19:30;17.00;99.90
3912;DHT22;1971;51.778;10.330;2023-08-30T16:22:03;17.00;99.90
3912;DHT22;1971;51.778;10.330;2023-08-30T16:24:34;16.90;99.90
3912;DHT22;1971;51.778;10.330;2023-08-30T16:27:04;16.80;99.90
3912;DHT22;1971;51.778;10.330;2023-08-30T16:29:35;16.80;99.90
3912;DHT22;1971;51.778;10.330;2023-08-30T16:32:06;16.80;99.90
3912;DHT22;1971;51.778;10.330;2023-08-30T16:34:40;16.60;99.90
3912;DHT22;1971;51.778;10.330;2023-08-30T16:37:12;16.60;99.90
3912;DHT22;1971;51.778;10.330;2023-08-30T16:39:43;16.50;99.90
3912;DHT22;1971;51.778;10.330;2023-08-30T16:42:14;16.50;99.90
3912;DHT22;1971;51.778;10.330;2023-08-30T16:44:48;16.40;99.90
3912;DHT22;1971;51.778;10.330;2023-08-30T16:47:23;16.40;99.90
3912;DHT22;1971;51.778;10.330;2023-08-30T16:49:56;16.40;99.90
3912;DHT22;1971;51.778;10.330;2023-08-30T16:52:27;16.30;99.90
3912;DHT22;1971;51.778;10.330;2023-08-30T16:55:02;16.30;99.90
3912;DHT22;1971;51.778;10.330;2023-08-30T16:57:35;16.20;99.90
3912;DHT22;1971;51.778;10.330;2023-08-30T17:00:07;16.10;99.90
3912;DHT22;1971;51.778;10.330;2023-08-30T17:02:38;16.00;99.90
3912;DHT22;1971;51.778;10.330;2023-08-30T17:05:12;15.80;99.90
3912;DHT22;1971;51.778;10.330;2023-08-30T17:07:42;15.30;1.00
3912;DHT22;1971;51.778;10.330;2023-08-30T17:10:13;14.40;99.90
3912;DHT22;1971;51.778;10.330;2023-08-30T17:12:43;14.10;1.00
3912;DHT22;1971;51.778;10.330;2023-08-30T17:15:14;14.10;46.70
3912;DHT22;1971;51.778;10.330;2023-08-30T17:17:44;14.10;94.00
3912;DHT22;1971;51.778;10.330;2023-08-30T17:20:17;14.20;99.90
3912;DHT22;1971;51.778;10.330;2023-08-30T17:22:47;14.10;99.90
3912;DHT22;1971;51.778;10.330;2023-08-30T17:25:17;14.10;99.90
3912;DHT22;1971;51.778;10.330;2023-08-30T17:27:48;14.10;99.90
3912;DHT22;1971;51.778;10.330;2023-08-30T17:30:18;14.10;99.90
3912;DHT22;1971;51.778;10.330;2023-08-30T17:32:48;14.10;99.90
3912;DHT22;1971;51.778;10.330;2023-08-30T17:35:21;14.10;99.90
3912;DHT22;1971;51.778;10.330;2023-08-30T17:37:53;14.10;99.90
3912;DHT22;1971;51.778;10.330;2023-08-30T17:40:23;14.10;99.90
3912;DHT22;1971;51.778;10.330;2023-08-30T17:42:53;14.10;99.90
3912;DHT22;1971;51.778;10.330;2023-08-30T17:45:25;14.00;99.90
3912;DHT22;1971;51.778;10.330;2023-08-30T17:47:55;13.90;99.90
3912;DHT22;1971;51.778;10.330;2023-08-30T17:50:29;13.70;99.90
3912;DHT22;1971;51.778;10.330;2023-08-30T17:53:00;13.60;99.90
3912;DHT22;1971;51.778;10.330;2023-08-30T17:55:30;13.60;99.90
3912;DHT22;1971;51.778;10.330;2023-08-30T17:58:01;13.70;99.90
3912;DHT22;1971;51.778;10.330;2023-08-30T18:00:31;13.70;99.90
3912;DHT22;1971;51.778;10.330;2023-08-30T18:03:02;13.80;99.90
3912;DHT22;1971;51.778;10.330;2023-08-30T18:05:35;13.70;99.90
3912;DHT22;1971;51.778;10.330;2023-08-30T18:08:05;13.70;99.90
3912;DHT22;1971;51.778;10.330;2023-08-30T18:10:36;13.70;99.90
3912;DHT22;1971;51.778;10.330;2023-08-30T18:13:06;13.70;99.90
3912;DHT22;1971;51.778;10.330;2023-08-30T18:15:37;13.70;99.90
3912;DHT22;1971;51.778;10.330;2023-08-30T18:18:07;13.50;99.90
3912;DHT22;1971;51.778;10.330;2023-08-30T18:20:40;13.40;99.90
3912;DHT22;1971;51.778;10.330;2023-08-30T18:23:10;13.20;99.90
3912;DHT22;1971;51.778;10.330;2023-08-30T18:25:42;13.10;99.90
3912;DHT22;1971;51.778;10.330;2023-08-30T18:28:12;12.90;99.90
3912;DHT22;1971;51.778;10.330;2023-08-30T18:30:43;12.90;99.90
3912;DHT22;1971;51.778;10.330;2023-08-30T18:33:13;12.80;99.90
3912;DHT22;1971;51.778;10.330;2023-08-30T18:35:47;12.70;99.90
3912;DHT22;1971;51.778;10.330;2023-08-30T18:38:17;12.60;99.90
3912;DHT22;1971;51.778;10.330;2023-08-30T18:40:48;12.60;99.90
3912;DHT22;1971;51.778;10.330;2023-08-30T18:43:38;12.40;99.90
3912;DHT22;1971;51.778;10.330;2023-08-30T18:46:09;12.40;99.90
3912;DHT22;1971;51.778;10.330;2023-08-30T18:48:43;12.20;99.90
3912;DHT22;1971;51.778;10.330;2023-08-30T18:51:15;12.20;99.90
3912;DHT22;1971;51.778;10.330;2023-08-30T18:53:46;12.10;99.90
3912;DHT22;1971;51.778;10.330;2023-08-30T18:56:16;11.90;99.90
3912;DHT22;1971;51.778;10.330;2023-08-30T18:58:47;11.90;99.90
3912;DHT22;1971;51.778;10.330;2023-08-30T19:01:17;11.90;99.90
3912;DHT22;1971;51.778;10.330;2023-08-30T19:03:48;11.90;99.90
3912;DHT22;1971;51.778;10.330;2023-08-30T19:06:21;11.90;99.90
3912;DHT22;1971;51.778;10.330;2023-08-30T19:08:53;12.00;99.90
3912;DHT22;1971;51.778;10.330;2023-08-30T19:11:24;12.00;99.90
3912;DHT22;1971;51.778;10.330;2023-08-30T19:13:54;12.10;99.90
3912;DHT22;1971;51.778;10.330;2023-08-30T19:16:24;12.20;99.90
3912;DHT22;1971;51.778;10.330;2023-08-30T19:18:56;12.20;99.90
3912;DHT22;1971;51.778;10.330;2023-08-30T19:21:29;12.30;99.90
3912;DHT22;1971;51.778;10.330;2023-08-30T19:24:00;12.30;99.90
3912;DHT22;1971;51.778;10.330;2023-08-30T19:26:30;12.40;99.90
3912;DHT22;1971;51.778;10.330;2023-08-30T19:29:01;12.50;99.90
3912;DHT22;1971;51.778;10.330;2023-08-30T19:31:32;12.50;99.90
3912;DHT22;1971;51.778;10.330;2023-08-30T19:34:03;12.50;99.90
3912;DHT22;1971;51.778;10.330;2023-08-30T19:36:36;12.50;99.90
3912;DHT22;1971;51.778;10.330;2023-08-30T19:39:07;12.50;99.90
3912;DHT22;1971;51.778;10.330;2023-08-30T19:41:38;12.50;99.90
3912;DHT22;1971;51.778;10.330;2023-08-30T19:44:09;12.50;99.90
3912;DHT22;1971;51.778;10.330;2023-08-30T19:46:39;12.50;99.90
3912;DHT22;1971;51.778;10.330;2023-08-30T19:49:09;12.60;99.90
3912;DHT22;1971;51.778;10.330;2023-08-30T19:51:42;12.60;99.90
3912;DHT22;1971;51.778;10.330;2023-08-30T19:54:12;12.60;99.90
3912;DHT22;1971;51.778;10.330;2023-08-30T19:56:43;12.50;99.90
3912;DHT22;1971;51.778;10.330;2023-08-30T19:59:13;12.50;99.90
3912;DHT22;1971;51.778;10.330;2023-08-30T20:01:43;12.50;99.90
3912;DHT22;1971;51.778;10.330;2023-08-30T20:04:14;12.40;99.90
3912;DHT22;1971;51.778;10.330;2023-08-30T20:06:47;12.30;99.90
3912;DHT22;1971;51.778;10.330;2023-08-30T20:09:18;12.20;99.90
3912;DHT22;1971;51.778;10.330;2023-08-30T20:11:49;12.20;99.90
3912;DHT22;1971;51.778;10.330;2023-08-30T20:14:19;12.20;99.90
3912;DHT22;1971;51.778;10.330;2023-08-30T20:16:49;12.30;99.90
3912;DHT22;1971;51.778;10.330;2023-08-30T20:19:20;12.20;99.90
3912;DHT22;1971;51.778;10.330;2023-08-30T20:21:52;12.00;99.90
3912;DHT22;1971;51.778;10.330;2023-08-30T20:24:23;12.00;99.90
3912;DHT22;1971;51.778;10.330;2023-08-30T20:26:54;12.00;99.90
3912;DHT22;1971;51.778;10.330;2023-08-30T20:29:24;12.00;99.90
3912;DHT22;1971;51.778;10.330;2023-08-30T20:31:54;12.00;99.90
3912;DHT22;1971;51.778;10.330;2023-08-30T20:34:24;12.00;99.90
3912;DHT22;1971;51.778;10.330;2023-08-30T20:36:58;12.00;99.90
3912;DHT22;1971;51.778;10.330;2023-08-30T20:39:28;12.00;99.90
3912;DHT22;1971;51.778;10.330;2023-08-30T20:41:59;12.20;99.90
3912;DHT22;1971;51.778;10.330;2023-08-30T20:44:29;12.00;99.90
3912;DHT22;1971;51.778;10.330;2023-08-30T20:46:59;12.00;99.90
3912;DHT22;1971;51.778;10.330;2023-08-30T20:49:31;11.80;99.90
3912;DHT22;1971;51.778;10.330;2023-08-30T20:52:04;11.70;99.90
3912;DHT22;1971;51.778;10.330;2023-08-30T20:54:35;11.70;99.90
3912;DHT22;1971;51.778;10.330;2023-08-30T20:57:05;11.60;99.90
3912;DHT22;1971;51.778;10.330;2023-08-30T20:59:35;11.60;99.90
3912;DHT22;1971;51.778;10.330;2023-08-30T21:02:05;11.60;99.90
3912;DHT22;1971;51.778;10.330;2023-08-30T21:04:36;11.60;99.90
3912;DHT22;1971;51.778;10.330;2023-08-30T21:07:09;11.60;99.90
3912;DHT22;1971;51.778;10.330;2023-08-30T21:09:39;11.50;99.90
3912;DHT22;1971;51.778;10.330;2023-08-30T21:12:11;11.50;99.90
3912;DHT22;1971;51.778;10.330;2023-08-30T21:14:41;11.50;99.90
3912;DHT22;1971;51.778;10.330;2023-08-30T21:17:11;11.50;99.90
3912;DHT22;1971;51.778;10.330;2023-08-30T21:19:41;11.60;99.90
3912;DHT22;1971;51.778;10.330;2023-08-30T21:22:14;11.60;99.90
3912;DHT22;1971;51.778;10.330;2023-08-30T21:24:44;11.70;99.90
3912;DHT22;1971;51.778;10.330;2023-08-30T21:27:15;11.70;99.90
3912;DHT22;1971;51.778;10.330;2023-08-30T21:29:45;11.60;99.90
3912;DHT22;1971;51.778;10.330;2023-08-30T21:32:15;11.60;99.90
3912;DHT22;1971;51.778;10.330;2023-08-30T21:34:46;11.60;99.90
3912;DHT22;1971;51.778;10.330;2023-08-30T21:37:18;11.40;99.90
3912;DHT22;1971;51.778;10.330;2023-08-30T21:39:49;11.50;99.90
3912;DHT22;1971;51.778;10.330;2023-08-30T21:42:19;11.50;99.90
3912;DHT22;1971;51.778;10.330;2023-08-30T21:44:49;11.70;99.90
3912;DHT22;1971;51.778;10.330;2023-08-30T21:47:20;11.40;99.90
3912;DHT22;1971;51.778;10.330;2023-08-30T21:49:50;11.40;99.90
3912;DHT22;1971;51.778;10.330;2023-08-30T21:52:23;11.40;99.90
3912;DHT22;1971;51.778;10.330;2023-08-30T21:54:53;11.40;99.90
3912;DHT22;1971;51.778;10.330;2023-08-30T21:57:23;11.40;99.90
3912;DHT22;1971;51.778;10.330;2023-08-30T21:59:54;11.40;99.90
3912;DHT22;1971;51.778;10.330;2023-08-30T22:02:24;11.50;99.90
3912;DHT22;1971;51.778;10.330;2023-08-30T22:04:55;11.40;99.90
3912;DHT22;1971;51.778;10.330;2023-08-30T22:07:28;11.40;99.90
3912;DHT22;1971;51.778;10.330;2023-08-30T22:09:58;11.30;99.90
3912;DHT22;1971;51.778;10.330;2023-08-30T22:12:28;11.40;99.90
3912;DHT22;1971;51.778;10.330;2023-08-30T22:14:58;11.40;99.90
3912;DHT22;1971;51.778;10.330;2023-08-30T22:17:28;11.30;99.90
3912;DHT22;1971;51.778;10.330;2023-08-30T22:19:59;11.30;99.90
3912;DHT22;1971;51.778;10.330;2023-08-30T22:22:32;11.30;99.90
3912;DHT22;1971;51.778;10.330;2023-08-30T22:25:03;11.20;99.90
3912;DHT22;1971;51.778;10.330;2023-08-30T22:27:35;11.20;99.90
3912;DHT22;1971;51.778;10.330;2023-08-30T22:30:07;11.20;99.90
3912;DHT22;1971;51.778;10.330;2023-08-30T22:32:38;11.20;99.90
3912;DHT22;1971;51.778;10.330;2023-08-30T22:35:10;11.20;99.90
3912;DHT22;1971;51.778;10.330;2023-08-30T22:37:45;11.20;99.90
3912;DHT22;1971;51.778;10.330;2023-08-30T22:40:15;11.20;99.90
3912;DHT22;1971;51.778;10.330;2023-08-30T22:42:46;11.20;99.90
3912;DHT22;1971;51.778;10.330;2023-08-30T22:45:16;11.20;99.90
3912;DHT22;1971;51.778;10.330;2023-08-30T22:47:47;11.30;99.90
3912;DHT22;1971;51.778;10.330;2023-08-30T22:50:21;11.40;99.90
3912;DHT22;1971;51.778;10.330;2023-08-30T22:52:54;11.30;99.90
3912;DHT22;1971;51.778;10.330;2023-08-30T22:55:25;11.30;99.90
3912;DHT22;1971;51.778;10.330;2023-08-30T22:57:55;11.20;99.90
3912;DHT22;1971;51.778;10.330;2023-08-30T23:00:26;11.20;99.90
3912;DHT22;1971;51.778;10.330;2023-08-30T23:02:56;11.30;99.90
3912;DHT22;1971;51.778;10.330;2023-08-30T23:05:26;11.20;99.90
3912;DHT22;1971;51.778;10.330;2023-08-30T23:08:00;11.10;99.90
3912;DHT22;1971;51.778;10.330;2023-08-30T23:10:31;11.10;99.90
3912;DHT22;1971;51.778;10.330;2023-08-30T23:13:01;11.10;99.90
3912;DHT22;1971;51.778;10.330;2023-08-30T23:15:31;11.00;99.90
3912;DHT22;1971;51.778;10.330;2023-08-30T23:18:02;11.20;99.90
3912;DHT22;1971;51.778;10.330;2023-08-30T23:20:33;10.90;99.90
3912;DHT22;1971;51.778;10.330;2023-08-30T23:23:08;11.00;99.90
3912;DHT22;1971;51.778;10.330;2023-08-30T23:25:40;11.00;99.90
3912;DHT22;1971;51.778;10.330;2023-08-30T23:28:11;11.00;99.90
3912;DHT22;1971;51.778;10.330;2023-08-30T23:30:41;11.00;99.90
3912;DHT22;1971;51.778;10.330;2023-08-30T23:33:12;11.00;99.90
3912;DHT22;1971;51.778;10.330;2023-08-30T23:35:42;10.90;99.90
3912;DHT22;1971;51.778;10.330;2023-08-30T23:38:15;11.00;99.90
3912;DHT22;1971;51.778;10.330;2023-08-30T23:40:47;10.80;99.90
3912;DHT22;1971;51.778;10.330;2023-08-30T23:43:18;11.00;99.90
3912;DHT22;1971;51.778;10.330;2023-08-30T23:45:49;10.70;99.90
3912;DHT22;1971;51.778;10.330;2023-08-30T23:48:21;11.00;99.90
3912;DHT22;1971;51.778;10.330;2023-08-30T23:50:51;11.00;99.90
3912;DHT22;1971;51.778;10.330;2023-08-30T23:53:24;11.00;99.90
3912;DHT22;1971;51.778;10.330;2023-08-30T23:55:55;10.90;99.90
3912;DHT22;1971;51.778;10.330;2023-08-30T23:58:25;11.00;99.90
